sensor_id;sensor_type;location;lat;lon;timestamp;P1;durP1;ratioP1;P2;durP2;ratioP2
10550;SDS011;5324;50.684;3.862;2023-07-28T00:00:03;1.60;;;1.50;;
10550;SDS011;5324;50.684;3.862;2023-07-28T00:02:30;1.52;;;1.42;;
10550;SDS011;5324;50.684;3.862;2023-07-28T00:04:56;1.58;;;1.45;;
10550;SDS011;5324;50.684;3.862;2023-07-28T00:07:22;1.38;;;1.27;;
10550;SDS011;5324;50.684;3.862;2023-07-28T00:09:48;1.92;;;1.50;;
10550;SDS011;5324;50.684;3.862;2023-07-28T00:12:14;1.65;;;1.42;;
10550;SDS011;5324;50.684;3.862;2023-07-28T00:14:40;1.20;;;1.10;;
10550;SDS011;5324;50.684;3.862;2023-07-28T00:17:06;1.63;;;1.30;;
10550;SDS011;5324;50.684;3.862;2023-07-28T00:19:33;1.80;;;1.25;;
10550;SDS011;5324;50.684;3.862;2023-07-28T00:21:59;1.40;;;1.30;;
10550;SDS011;5324;50.684;3.862;2023-07-28T00:24:25;1.40;;;1.30;;
10550;SDS011;5324;50.684;3.862;2023-07-28T00:26:51;1.40;;;1.30;;
10550;SDS011;5324;50.684;3.862;2023-07-28T00:29:17;1.58;;;1.20;;
10550;SDS011;5324;50.684;3.862;2023-07-28T00:31:43;1.23;;;1.13;;
10550;SDS011;5324;50.684;3.862;2023-07-28T00:34:09;2.35;;;1.27;;
10550;SDS011;5324;50.684;3.862;2023-07-28T00:36:35;1.30;;;1.20;;
10550;SDS011;5324;50.684;3.862;2023-07-28T00:39:01;2.80;;;1.15;;
10550;SDS011;5324;50.684;3.862;2023-07-28T00:41:27;1.42;;;1.33;;
10550;SDS011;5324;50.684;3.862;2023-07-28T00:43:53;1.92;;;1.30;;
10550;SDS011;5324;50.684;3.862;2023-07-28T00:46:19;1.38;;;1.27;;
10550;SDS011;5324;50.684;3.862;2023-07-28T00:48:45;1.70;;;1.60;;
10550;SDS011;5324;50.684;3.862;2023-07-28T00:51:11;1.30;;;1.17;;
10550;SDS011;5324;50.684;3.862;2023-07-28T00:53:37;1.10;;;1.10;;
10550;SDS011;5324;50.684;3.862;2023-07-28T00:56:04;2.22;;;1.30;;
10550;SDS011;5324;50.684;3.862;2023-07-28T00:58:31;1.10;;;1.10;;
10550;SDS011;5324;50.684;3.862;2023-07-28T01:00:57;1.40;;;1.23;;
10550;SDS011;5324;50.684;3.862;2023-07-28T01:03:23;1.35;;;1.25;;
10550;SDS011;5324;50.684;3.862;2023-07-28T01:05:54;1.75;;;1.10;;
10550;SDS011;5324;50.684;3.862;2023-07-28T01:08:25;1.52;;;1.33;;
10550;SDS011;5324;50.684;3.862;2023-07-28T01:10:53;1.35;;;1.25;;
10550;SDS011;5324;50.684;3.862;2023-07-28T01:13:19;2.15;;;1.50;;
10550;SDS011;5324;50.684;3.862;2023-07-28T01:15:46;1.30;;;1.20;;
10550;SDS011;5324;50.684;3.862;2023-07-28T01:18:11;1.10;;;1.10;;
10550;SDS011;5324;50.684;3.862;2023-07-28T01:20:38;1.27;;;1.20;;
10550;SDS011;5324;50.684;3.862;2023-07-28T01:28:21;1.17;;;1.10;;
10550;SDS011;5324;50.684;3.862;2023-07-28T01:30:47;1.45;;;1.35;;
10550;SDS011;5324;50.684;3.862;2023-07-28T01:33:13;1.73;;;1.30;;
10550;SDS011;5324;50.684;3.862;2023-07-28T01:35:39;1.52;;;1.42;;
10550;SDS011;5324;50.684;3.862;2023-07-28T01:38:06;1.55;;;1.45;;
10550;SDS011;5324;50.684;3.862;2023-07-28T01:40:32;1.55;;;1.20;;
10550;SDS011;5324;50.684;3.862;2023-07-28T01:42:58;3.05;;;1.40;;
10550;SDS011;5324;50.684;3.862;2023-07-28T01:45:24;1.50;;;1.40;;
10550;SDS011;5324;50.684;3.862;2023-07-28T01:47:50;1.40;;;1.33;;
10550;SDS011;5324;50.684;3.862;2023-07-28T01:50:16;1.80;;;1.40;;
10550;SDS011;5324;50.684;3.862;2023-07-28T01:52:42;1.45;;;1.35;;
10550;SDS011;5324;50.684;3.862;2023-07-28T01:55:08;1.50;;;1.40;;
10550;SDS011;5324;50.684;3.862;2023-07-28T01:57:34;1.27;;;1.17;;
10550;SDS011;5324;50.684;3.862;2023-07-28T02:00:00;3.42;;;1.38;;
10550;SDS011;5324;50.684;3.862;2023-07-28T02:02:28;1.20;;;1.10;;
10550;SDS011;5324;50.684;3.862;2023-07-28T02:04:54;1.27;;;1.25;;
10550;SDS011;5324;50.684;3.862;2023-07-28T02:07:20;1.23;;;1.02;;
10550;SDS011;5324;50.684;3.862;2023-07-28T02:09:46;1.25;;;1.15;;
10550;SDS011;5324;50.684;3.862;2023-07-28T02:12:12;2.60;;;1.58;;
10550;SDS011;5324;50.684;3.862;2023-07-28T02:14:38;1.33;;;1.23;;
10550;SDS011;5324;50.684;3.862;2023-07-28T02:17:04;1.33;;;1.20;;
10550;SDS011;5324;50.684;3.862;2023-07-28T02:19:30;1.13;;;1.10;;
10550;SDS011;5324;50.684;3.862;2023-07-28T02:21:56;1.40;;;1.30;;
10550;SDS011;5324;50.684;3.862;2023-07-28T02:24:22;0.98;;;0.98;;
10550;SDS011;5324;50.684;3.862;2023-07-28T02:26:49;1.60;;;1.40;;
10550;SDS011;5324;50.684;3.862;2023-07-28T02:29:15;1.40;;;1.30;;
10550;SDS011;5324;50.684;3.862;2023-07-28T02:31:41;1.30;;;1.20;;
10550;SDS011;5324;50.684;3.862;2023-07-28T02:34:08;1.88;;;1.38;;
10550;SDS011;5324;50.684;3.862;2023-07-28T02:36:34;1.27;;;1.00;;
10550;SDS011;5324;50.684;3.862;2023-07-28T02:39:00;1.00;;;1.00;;
10550;SDS011;5324;50.684;3.862;2023-07-28T02:41:25;1.30;;;1.00;;
10550;SDS011;5324;50.684;3.862;2023-07-28T02:43:51;1.08;;;1.08;;
10550;SDS011;5324;50.684;3.862;2023-07-28T02:46:18;1.00;;;1.00;;
10550;SDS011;5324;50.684;3.862;2023-07-28T02:48:44;1.30;;;1.20;;
10550;SDS011;5324;50.684;3.862;2023-07-28T02:51:10;1.20;;;1.10;;
10550;SDS011;5324;50.684;3.862;2023-07-28T02:53:36;1.25;;;1.20;;
10550;SDS011;5324;50.684;3.862;2023-07-28T02:56:01;1.58;;;1.48;;
10550;SDS011;5324;50.684;3.862;2023-07-28T02:58:28;2.50;;;1.63;;
10550;SDS011;5324;50.684;3.862;2023-07-28T03:00:54;2.05;;;1.52;;
10550;SDS011;5324;50.684;3.862;2023-07-28T03:03:20;2.53;;;1.52;;
10550;SDS011;5324;50.684;3.862;2023-07-28T03:05:46;1.30;;;1.20;;
10550;SDS011;5324;50.684;3.862;2023-07-28T03:08:12;1.60;;;1.50;;
10550;SDS011;5324;50.684;3.862;2023-07-28T03:10:38;1.50;;;1.40;;
10550;SDS011;5324;50.684;3.862;2023-07-28T03:13:04;1.58;;;1.48;;
10550;SDS011;5324;50.684;3.862;2023-07-28T03:15:30;1.60;;;1.50;;
10550;SDS011;5324;50.684;3.862;2023-07-28T03:17:56;1.40;;;1.40;;
10550;SDS011;5324;50.684;3.862;2023-07-28T03:20:22;1.60;;;1.20;;
10550;SDS011;5324;50.684;3.862;2023-07-28T03:22:48;1.33;;;1.23;;
10550;SDS011;5324;50.684;3.862;2023-07-28T03:25:14;1.10;;;1.10;;
10550;SDS011;5324;50.684;3.862;2023-07-28T03:27:40;2.15;;;1.45;;
10550;SDS011;5324;50.684;3.862;2023-07-28T03:30:06;1.50;;;1.40;;
10550;SDS011;5324;50.684;3.862;2023-07-28T03:32:35;1.40;;;1.23;;
10550;SDS011;5324;50.684;3.862;2023-07-28T03:35:01;1.40;;;1.30;;
10550;SDS011;5324;50.684;3.862;2023-07-28T03:37:30;1.67;;;1.58;;
10550;SDS011;5324;50.684;3.862;2023-07-28T03:39:55;1.55;;;1.45;;
10550;SDS011;5324;50.684;3.862;2023-07-28T03:42:21;1.30;;;1.27;;
10550;SDS011;5324;50.684;3.862;2023-07-28T03:44:47;2.00;;;1.90;;
10550;SDS011;5324;50.684;3.862;2023-07-28T03:47:13;3.72;;;2.08;;
10550;SDS011;5324;50.684;3.862;2023-07-28T03:49:39;2.33;;;2.13;;
10550;SDS011;5324;50.684;3.862;2023-07-28T03:52:05;2.60;;;2.10;;
10550;SDS011;5324;50.684;3.862;2023-07-28T03:54:31;2.10;;;2.00;;
10550;SDS011;5324;50.684;3.862;2023-07-28T03:56:57;1.60;;;1.50;;
10550;SDS011;5324;50.684;3.862;2023-07-28T03:59:24;1.63;;;1.52;;
10550;SDS011;5324;50.684;3.862;2023-07-28T04:01:50;2.22;;;2.03;;
10550;SDS011;5324;50.684;3.862;2023-07-28T04:04:17;1.98;;;1.88;;
10550;SDS011;5324;50.684;3.862;2023-07-28T04:06:44;1.85;;;1.75;;
10550;SDS011;5324;50.684;3.862;2023-07-28T04:09:12;2.50;;;1.75;;
10550;SDS011;5324;50.684;3.862;2023-07-28T04:11:39;1.70;;;1.60;;
10550;SDS011;5324;50.684;3.862;2023-07-28T04:14:05;2.40;;;2.10;;
10550;SDS011;5324;50.684;3.862;2023-07-28T04:16:31;1.88;;;1.77;;
10550;SDS011;5324;50.684;3.862;2023-07-28T04:18:57;2.35;;;1.88;;
10550;SDS011;5324;50.684;3.862;2023-07-28T04:21:23;1.90;;;1.80;;
10550;SDS011;5324;50.684;3.862;2023-07-28T04:23:49;1.80;;;1.70;;
10550;SDS011;5324;50.684;3.862;2023-07-28T04:26:18;1.88;;;1.77;;
10550;SDS011;5324;50.684;3.862;2023-07-28T04:28:44;2.13;;;2.03;;
10550;SDS011;5324;50.684;3.862;2023-07-28T04:31:11;1.90;;;1.80;;
10550;SDS011;5324;50.684;3.862;2023-07-28T04:33:38;1.80;;;1.70;;
10550;SDS011;5324;50.684;3.862;2023-07-28T04:36:06;2.10;;;1.70;;
10550;SDS011;5324;50.684;3.862;2023-07-28T04:38:32;1.88;;;1.77;;
10550;SDS011;5324;50.684;3.862;2023-07-28T04:40:58;1.77;;;1.67;;
10550;SDS011;5324;50.684;3.862;2023-07-28T04:43:24;1.45;;;1.35;;
10550;SDS011;5324;50.684;3.862;2023-07-28T04:45:50;1.20;;;1.10;;
10550;SDS011;5324;50.684;3.862;2023-07-28T04:48:16;1.50;;;1.40;;
10550;SDS011;5324;50.684;3.862;2023-07-28T04:50:42;1.75;;;1.33;;
10550;SDS011;5324;50.684;3.862;2023-07-28T04:53:08;1.52;;;1.38;;
10550;SDS011;5324;50.684;3.862;2023-07-28T04:55:34;1.55;;;1.27;;
10550;SDS011;5324;50.684;3.862;2023-07-28T04:58:00;2.08;;;1.30;;
10550;SDS011;5324;50.684;3.862;2023-07-28T05:00:26;1.77;;;1.20;;
10550;SDS011;5324;50.684;3.862;2023-07-28T05:02:52;1.98;;;1.20;;
10550;SDS011;5324;50.684;3.862;2023-07-28T05:05:18;1.73;;;1.48;;
10550;SDS011;5324;50.684;3.862;2023-07-28T05:07:44;1.55;;;1.45;;
10550;SDS011;5324;50.684;3.862;2023-07-28T05:10:10;1.48;;;1.10;;
10550;SDS011;5324;50.684;3.862;2023-07-28T05:12:36;1.60;;;1.50;;
10550;SDS011;5324;50.684;3.862;2023-07-28T05:15:02;1.50;;;1.40;;
10550;SDS011;5324;50.684;3.862;2023-07-28T05:17:29;2.80;;;1.80;;
10550;SDS011;5324;50.684;3.862;2023-07-28T05:19:55;1.80;;;1.70;;
10550;SDS011;5324;50.684;3.862;2023-07-28T05:22:21;1.90;;;1.70;;
10550;SDS011;5324;50.684;3.862;2023-07-28T05:24:47;1.95;;;1.73;;
10550;SDS011;5324;50.684;3.862;2023-07-28T05:27:14;1.75;;;1.55;;
10550;SDS011;5324;50.684;3.862;2023-07-28T05:29:40;1.83;;;1.65;;
10550;SDS011;5324;50.684;3.862;2023-07-28T05:32:06;2.00;;;1.58;;
10550;SDS011;5324;50.684;3.862;2023-07-28T05:34:32;2.25;;;2.05;;
10550;SDS011;5324;50.684;3.862;2023-07-28T05:36:59;1.88;;;1.75;;
10550;SDS011;5324;50.684;3.862;2023-07-28T05:39:25;2.13;;;1.92;;
10550;SDS011;5324;50.684;3.862;2023-07-28T05:41:51;2.47;;;2.28;;
10550;SDS011;5324;50.684;3.862;2023-07-28T05:44:17;2.60;;;2.00;;
10550;SDS011;5324;50.684;3.862;2023-07-28T05:46:43;2.25;;;2.00;;
10550;SDS011;5324;50.684;3.862;2023-07-28T05:49:10;2.17;;;1.98;;
10550;SDS011;5324;50.684;3.862;2023-07-28T05:51:36;2.13;;;1.63;;
10550;SDS011;5324;50.684;3.862;2023-07-28T05:54:02;1.90;;;1.80;;
10550;SDS011;5324;50.684;3.862;2023-07-28T05:56:28;1.90;;;1.70;;
10550;SDS011;5324;50.684;3.862;2023-07-28T05:58:55;1.67;;;1.55;;
10550;SDS011;5324;50.684;3.862;2023-07-28T06:01:21;3.40;;;2.15;;
10550;SDS011;5324;50.684;3.862;2023-07-28T06:03:48;3.25;;;2.13;;
10550;SDS011;5324;50.684;3.862;2023-07-28T06:06:16;1.90;;;1.80;;
10550;SDS011;5324;50.684;3.862;2023-07-28T06:08:43;1.88;;;1.77;;
10550;SDS011;5324;50.684;3.862;2023-07-28T06:11:09;2.78;;;2.20;;
10550;SDS011;5324;50.684;3.862;2023-07-28T06:13:35;2.22;;;2.03;;
10550;SDS011;5324;50.684;3.862;2023-07-28T06:16:01;3.15;;;2.10;;
10550;SDS011;5324;50.684;3.862;2023-07-28T06:18:27;1.90;;;1.80;;
10550;SDS011;5324;50.684;3.862;2023-07-28T06:20:53;1.92;;;1.80;;
10550;SDS011;5324;50.684;3.862;2023-07-28T06:23:19;2.75;;;2.30;;
10550;SDS011;5324;50.684;3.862;2023-07-28T06:25:45;3.22;;;2.20;;
10550;SDS011;5324;50.684;3.862;2023-07-28T06:28:11;3.05;;;2.63;;
10550;SDS011;5324;50.684;3.862;2023-07-28T06:30:38;2.35;;;2.03;;
10550;SDS011;5324;50.684;3.862;2023-07-28T06:33:07;2.20;;;1.80;;
10550;SDS011;5324;50.684;3.862;2023-07-28T06:35:33;3.30;;;1.80;;
10550;SDS011;5324;50.684;3.862;2023-07-28T06:37:59;1.85;;;1.75;;
10550;SDS011;5324;50.684;3.862;2023-07-28T06:40:26;2.60;;;2.40;;
10550;SDS011;5324;50.684;3.862;2023-07-28T06:42:52;2.30;;;2.10;;
10550;SDS011;5324;50.684;3.862;2023-07-28T06:45:18;2.45;;;2.25;;
10550;SDS011;5324;50.684;3.862;2023-07-28T06:47:44;2.33;;;1.85;;
10550;SDS011;5324;50.684;3.862;2023-07-28T06:50:10;3.40;;;2.40;;
10550;SDS011;5324;50.684;3.862;2023-07-28T06:52:36;2.15;;;1.90;;
10550;SDS011;5324;50.684;3.862;2023-07-28T06:55:03;2.30;;;2.10;;
10550;SDS011;5324;50.684;3.862;2023-07-28T06:57:29;3.55;;;2.22;;
10550;SDS011;5324;50.684;3.862;2023-07-28T06:59:56;2.72;;;1.83;;
10550;SDS011;5324;50.684;3.862;2023-07-28T07:02:22;1.63;;;1.52;;
10550;SDS011;5324;50.684;3.862;2023-07-28T07:04:48;1.50;;;1.40;;
10550;SDS011;5324;50.684;3.862;2023-07-28T07:07:14;1.50;;;1.40;;
10550;SDS011;5324;50.684;3.862;2023-07-28T07:09:40;1.77;;;1.67;;
10550;SDS011;5324;50.684;3.862;2023-07-28T07:12:08;1.73;;;1.63;;
10550;SDS011;5324;50.684;3.862;2023-07-28T07:14:34;1.48;;;1.38;;
10550;SDS011;5324;50.684;3.862;2023-07-28T07:17:00;1.52;;;1.38;;
10550;SDS011;5324;50.684;3.862;2023-07-28T07:19:29;1.85;;;1.60;;
10550;SDS011;5324;50.684;3.862;2023-07-28T07:21:55;1.40;;;1.30;;
10550;SDS011;5324;50.684;3.862;2023-07-28T07:24:21;1.38;;;1.27;;
10550;SDS011;5324;50.684;3.862;2023-07-28T07:26:47;1.40;;;1.30;;
10550;SDS011;5324;50.684;3.862;2023-07-28T07:29:13;1.73;;;1.63;;
10550;SDS011;5324;50.684;3.862;2023-07-28T07:31:39;1.30;;;1.20;;
10550;SDS011;5324;50.684;3.862;2023-07-28T07:34:05;1.40;;;1.27;;
10550;SDS011;5324;50.684;3.862;2023-07-28T07:36:31;1.75;;;1.27;;
10550;SDS011;5324;50.684;3.862;2023-07-28T07:38:58;1.02;;;1.02;;
10550;SDS011;5324;50.684;3.862;2023-07-28T07:41:24;1.10;;;1.10;;
10550;SDS011;5324;50.684;3.862;2023-07-28T07:43:52;1.40;;;1.30;;
10550;SDS011;5324;50.684;3.862;2023-07-28T07:46:18;1.50;;;1.40;;
10550;SDS011;5324;50.684;3.862;2023-07-28T07:48:46;1.10;;;1.10;;
10550;SDS011;5324;50.684;3.862;2023-07-28T07:51:13;1.10;;;1.10;;
10550;SDS011;5324;50.684;3.862;2023-07-28T07:53:39;1.27;;;1.17;;
10550;SDS011;5324;50.684;3.862;2023-07-28T07:56:05;1.02;;;1.02;;
10550;SDS011;5324;50.684;3.862;2023-07-28T07:58:32;1.13;;;1.13;;
10550;SDS011;5324;50.684;3.862;2023-07-28T08:00:58;1.10;;;1.00;;
10550;SDS011;5324;50.684;3.862;2023-07-28T08:03:24;0.95;;;0.95;;
10550;SDS011;5324;50.684;3.862;2023-07-28T08:05:51;3.10;;;1.00;;
10550;SDS011;5324;50.684;3.862;2023-07-28T08:08:18;0.82;;;0.82;;
10550;SDS011;5324;50.684;3.862;2023-07-28T08:10:45;1.35;;;1.10;;
10550;SDS011;5324;50.684;3.862;2023-07-28T08:13:11;0.90;;;0.85;;
10550;SDS011;5324;50.684;3.862;2023-07-28T08:15:37;1.00;;;1.00;;
10550;SDS011;5324;50.684;3.862;2023-07-28T08:18:03;0.77;;;0.77;;
10550;SDS011;5324;50.684;3.862;2023-07-28T08:20:29;0.80;;;0.80;;
10550;SDS011;5324;50.684;3.862;2023-07-28T08:22:55;1.00;;;0.90;;
10550;SDS011;5324;50.684;3.862;2023-07-28T08:25:21;2.88;;;1.40;;
10550;SDS011;5324;50.684;3.862;2023-07-28T08:27:50;1.85;;;1.50;;
10550;SDS011;5324;50.684;3.862;2023-07-28T08:30:16;2.15;;;2.03;;
10550;SDS011;5324;50.684;3.862;2023-07-28T08:32:42;2.08;;;1.88;;
10550;SDS011;5324;50.684;3.862;2023-07-28T08:35:09;2.08;;;1.88;;
10550;SDS011;5324;50.684;3.862;2023-07-28T08:37:35;3.72;;;2.95;;
10550;SDS011;5324;50.684;3.862;2023-07-28T08:40:01;2.40;;;2.17;;
10550;SDS011;5324;50.684;3.862;2023-07-28T08:42:34;2.58;;;2.38;;
10550;SDS011;5324;50.684;3.862;2023-07-28T08:45:02;3.63;;;2.25;;
10550;SDS011;5324;50.684;3.862;2023-07-28T08:47:29;3.63;;;1.80;;
10550;SDS011;5324;50.684;3.862;2023-07-28T08:49:55;2.78;;;2.50;;
10550;SDS011;5324;50.684;3.862;2023-07-28T08:52:22;2.47;;;2.28;;
10550;SDS011;5324;50.684;3.862;2023-07-28T08:54:50;3.75;;;2.85;;
10550;SDS011;5324;50.684;3.862;2023-07-28T08:57:16;2.30;;;2.10;;
10550;SDS011;5324;50.684;3.862;2023-07-28T08:59:44;2.70;;;2.50;;
10550;SDS011;5324;50.684;3.862;2023-07-28T09:02:14;1.80;;;1.70;;
10550;SDS011;5324;50.684;3.862;2023-07-28T09:04:41;2.35;;;2.05;;
10550;SDS011;5324;50.684;3.862;2023-07-28T09:07:07;1.85;;;1.75;;
10550;SDS011;5324;50.684;3.862;2023-07-28T09:09:33;2.08;;;1.88;;
10550;SDS011;5324;50.684;3.862;2023-07-28T09:11:59;2.50;;;2.20;;
10550;SDS011;5324;50.684;3.862;2023-07-28T09:14:26;2.40;;;2.20;;
10550;SDS011;5324;50.684;3.862;2023-07-28T09:16:52;2.90;;;2.08;;
10550;SDS011;5324;50.684;3.862;2023-07-28T09:19:19;2.20;;;2.00;;
10550;SDS011;5324;50.684;3.862;2023-07-28T09:21:47;2.50;;;2.30;;
10550;SDS011;5324;50.684;3.862;2023-07-28T09:24:22;3.33;;;2.58;;
10550;SDS011;5324;50.684;3.862;2023-07-28T09:26:56;2.75;;;2.50;;
10550;SDS011;5324;50.684;3.862;2023-07-28T09:29:23;2.45;;;2.25;;
10550;SDS011;5324;50.684;3.862;2023-07-28T09:31:49;2.75;;;2.47;;
10550;SDS011;5324;50.684;3.862;2023-07-28T09:34:25;4.00;;;2.33;;
10550;SDS011;5324;50.684;3.862;2023-07-28T09:36:58;2.80;;;2.25;;
10550;SDS011;5324;50.684;3.862;2023-07-28T09:39:24;6.88;;;3.20;;
10550;SDS011;5324;50.684;3.862;2023-07-28T09:41:50;3.15;;;2.47;;
10550;SDS011;5324;50.684;3.862;2023-07-28T09:44:17;7.28;;;3.30;;
10550;SDS011;5324;50.684;3.862;2023-07-28T09:46:50;4.60;;;4.20;;
10550;SDS011;5324;50.684;3.862;2023-07-28T09:49:20;4.80;;;4.30;;
10550;SDS011;5324;50.684;3.862;2023-07-28T09:51:46;4.47;;;4.07;;
10550;SDS011;5324;50.684;3.862;2023-07-28T09:54:33;3.55;;;3.25;;
10550;SDS011;5324;50.684;3.862;2023-07-28T09:57:00;2.92;;;2.72;;
10550;SDS011;5324;50.684;3.862;2023-07-28T09:59:32;2.53;;;2.33;;
10550;SDS011;5324;50.684;3.862;2023-07-28T10:01:58;2.30;;;2.00;;
10550;SDS011;5324;50.684;3.862;2023-07-28T10:04:25;2.47;;;2.28;;
10550;SDS011;5324;50.684;3.862;2023-07-28T10:06:51;4.35;;;2.80;;
10550;SDS011;5324;50.684;3.862;2023-07-28T10:09:21;3.65;;;2.70;;
10550;SDS011;5324;50.684;3.862;2023-07-28T10:11:48;3.00;;;2.78;;
10550;SDS011;5324;50.684;3.862;2023-07-28T10:14:24;2.90;;;2.70;;
10550;SDS011;5324;50.684;3.862;2023-07-28T10:16:51;3.53;;;3.22;;
10550;SDS011;5324;50.684;3.862;2023-07-28T10:19:21;3.00;;;2.47;;
10550;SDS011;5324;50.684;3.862;2023-07-28T10:21:47;2.85;;;2.55;;
10550;SDS011;5324;50.684;3.862;2023-07-28T10:24:13;2.55;;;2.28;;
10550;SDS011;5324;50.684;3.862;2023-07-28T10:26:40;2.42;;;2.15;;
10550;SDS011;5324;50.684;3.862;2023-07-28T10:29:15;1.80;;;1.70;;
10550;SDS011;5324;50.684;3.862;2023-07-28T10:31:51;2.40;;;2.20;;
10550;SDS011;5324;50.684;3.862;2023-07-28T10:34:17;2.20;;;2.00;;
10550;SDS011;5324;50.684;3.862;2023-07-28T10:36:43;2.35;;;2.15;;
10550;SDS011;5324;50.684;3.862;2023-07-28T10:42:02;2.15;;;1.95;;
10550;SDS011;5324;50.684;3.862;2023-07-28T10:44:25;1.95;;;1.83;;
10550;SDS011;5324;50.684;3.862;2023-07-28T10:46:52;2.00;;;1.90;;
10550;SDS011;5324;50.684;3.862;2023-07-28T10:49:18;2.20;;;1.90;;
10550;SDS011;5324;50.684;3.862;2023-07-28T10:51:45;2.35;;;2.17;;
10550;SDS011;5324;50.684;3.862;2023-07-28T10:54:11;2.80;;;2.17;;
10550;SDS011;5324;50.684;3.862;2023-07-28T10:56:44;3.20;;;2.00;;
10550;SDS011;5324;50.684;3.862;2023-07-28T10:59:10;2.30;;;2.10;;
10550;SDS011;5324;50.684;3.862;2023-07-28T11:01:37;2.20;;;2.03;;
10550;SDS011;5324;50.684;3.862;2023-07-28T11:04:10;1.90;;;1.80;;
10550;SDS011;5324;50.684;3.862;2023-07-28T11:06:40;2.03;;;1.92;;
10550;SDS011;5324;50.684;3.862;2023-07-28T11:09:07;3.60;;;2.15;;
10550;SDS011;5324;50.684;3.862;2023-07-28T11:11:35;2.20;;;2.00;;
10550;SDS011;5324;50.684;3.862;2023-07-28T11:14:01;3.47;;;2.38;;
10550;SDS011;5324;50.684;3.862;2023-07-28T11:16:28;3.88;;;2.40;;
10550;SDS011;5324;50.684;3.862;2023-07-28T11:18:55;4.60;;;2.20;;
10550;SDS011;5324;50.684;3.862;2023-07-28T11:21:23;4.55;;;2.40;;
10550;SDS011;5324;50.684;3.862;2023-07-28T11:23:49;5.90;;;2.40;;
10550;SDS011;5324;50.684;3.862;2023-07-28T11:26:17;5.82;;;2.90;;
10550;SDS011;5324;50.684;3.862;2023-07-28T11:28:54;6.88;;;3.00;;
10550;SDS011;5324;50.684;3.862;2023-07-28T11:31:31;7.63;;;2.75;;
10550;SDS011;5324;50.684;3.862;2023-07-28T11:34:14;3.03;;;1.83;;
10550;SDS011;5324;50.684;3.862;2023-07-28T11:36:50;5.82;;;2.35;;
10550;SDS011;5324;50.684;3.862;2023-07-28T11:39:21;6.90;;;2.35;;
10550;SDS011;5324;50.684;3.862;2023-07-28T11:41:49;6.53;;;1.83;;
10550;SDS011;5324;50.684;3.862;2023-07-28T11:44:18;3.67;;;2.38;;
10550;SDS011;5324;50.684;3.862;2023-07-28T11:46:45;4.10;;;2.17;;
10550;SDS011;5324;50.684;3.862;2023-07-28T11:49:16;2.35;;;1.80;;
10550;SDS011;5324;50.684;3.862;2023-07-28T11:51:44;2.05;;;1.52;;
10550;SDS011;5324;50.684;3.862;2023-07-28T11:54:14;3.65;;;2.22;;
10550;SDS011;5324;50.684;3.862;2023-07-28T11:56:41;2.08;;;1.77;;
10550;SDS011;5324;50.684;3.862;2023-07-28T11:59:08;3.65;;;1.70;;
10550;SDS011;5324;50.684;3.862;2023-07-28T12:01:34;2.75;;;1.63;;
10550;SDS011;5324;50.684;3.862;2023-07-28T12:12:28;2.65;;;1.65;;
10550;SDS011;5324;50.684;3.862;2023-07-28T12:14:55;2.03;;;1.90;;
10550;SDS011;5324;50.684;3.862;2023-07-28T12:17:24;2.30;;;1.98;;
10550;SDS011;5324;50.684;3.862;2023-07-28T12:19:59;2.08;;;1.88;;
10550;SDS011;5324;50.684;3.862;2023-07-28T12:22:25;1.65;;;1.55;;
10550;SDS011;5324;50.684;3.862;2023-07-28T12:24:52;3.25;;;2.03;;
10550;SDS011;5324;50.684;3.862;2023-07-28T12:27:18;3.53;;;2.13;;
10550;SDS011;5324;50.684;3.862;2023-07-28T12:29:48;3.08;;;1.67;;
10550;SDS011;5324;50.684;3.862;2023-07-28T12:32:14;3.05;;;1.80;;
10550;SDS011;5324;50.684;3.862;2023-07-28T12:34:40;2.90;;;1.75;;
10550;SDS011;5324;50.684;3.862;2023-07-28T12:37:06;3.35;;;1.83;;
10550;SDS011;5324;50.684;3.862;2023-07-28T12:39:33;2.63;;;1.85;;
10550;SDS011;5324;50.684;3.862;2023-07-28T12:41:59;3.45;;;1.95;;
10550;SDS011;5324;50.684;3.862;2023-07-28T12:44:25;2.85;;;2.10;;
10550;SDS011;5324;50.684;3.862;2023-07-28T12:46:51;2.92;;;1.80;;
10550;SDS011;5324;50.684;3.862;2023-07-28T12:49:18;3.17;;;2.20;;
10550;SDS011;5324;50.684;3.862;2023-07-28T12:51:44;4.13;;;2.03;;
10550;SDS011;5324;50.684;3.862;2023-07-28T12:54:11;2.03;;;1.50;;
10550;SDS011;5324;50.684;3.862;2023-07-28T12:56:37;2.15;;;1.65;;
10550;SDS011;5324;50.684;3.862;2023-07-28T12:59:03;2.17;;;1.98;;
10550;SDS011;5324;50.684;3.862;2023-07-28T13:01:29;3.80;;;2.10;;
10550;SDS011;5324;50.684;3.862;2023-07-28T13:03:55;3.45;;;1.92;;
10550;SDS011;5324;50.684;3.862;2023-07-28T13:06:21;2.80;;;1.48;;
10550;SDS011;5324;50.684;3.862;2023-07-28T13:08:48;4.18;;;2.17;;
10550;SDS011;5324;50.684;3.862;2023-07-28T13:11:14;3.13;;;2.13;;
10550;SDS011;5324;50.684;3.862;2023-07-28T13:13:41;2.53;;;1.67;;
10550;SDS011;5324;50.684;3.862;2023-07-28T13:16:07;2.55;;;1.95;;
10550;SDS011;5324;50.684;3.862;2023-07-28T13:18:34;3.60;;;1.80;;
10550;SDS011;5324;50.684;3.862;2023-07-28T13:21:00;2.63;;;1.80;;
10550;SDS011;5324;50.684;3.862;2023-07-28T13:23:26;2.92;;;1.60;;
10550;SDS011;5324;50.684;3.862;2023-07-28T13:25:52;2.35;;;1.90;;
10550;SDS011;5324;50.684;3.862;2023-07-28T13:28:18;3.08;;;1.70;;
10550;SDS011;5324;50.684;3.862;2023-07-28T13:30:44;2.45;;;1.58;;
10550;SDS011;5324;50.684;3.862;2023-07-28T13:33:10;2.53;;;1.75;;
10550;SDS011;5324;50.684;3.862;2023-07-28T13:35:37;2.65;;;1.60;;
10550;SDS011;5324;50.684;3.862;2023-07-28T13:38:03;2.20;;;1.60;;
10550;SDS011;5324;50.684;3.862;2023-07-28T13:40:29;1.60;;;1.50;;
10550;SDS011;5324;50.684;3.862;2023-07-28T13:42:55;3.33;;;1.80;;
10550;SDS011;5324;50.684;3.862;2023-07-28T13:45:22;3.42;;;1.85;;
10550;SDS011;5324;50.684;3.862;2023-07-28T13:47:48;2.65;;;1.67;;
10550;SDS011;5324;50.684;3.862;2023-07-28T13:50:14;2.28;;;1.88;;
10550;SDS011;5324;50.684;3.862;2023-07-28T13:52:42;2.53;;;1.77;;
10550;SDS011;5324;50.684;3.862;2023-07-28T13:55:08;3.03;;;1.67;;
10550;SDS011;5324;50.684;3.862;2023-07-28T13:57:34;4.00;;;2.00;;
10550;SDS011;5324;50.684;3.862;2023-07-28T14:00:00;3.22;;;2.05;;
10550;SDS011;5324;50.684;3.862;2023-07-28T14:02:27;1.73;;;1.60;;
10550;SDS011;5324;50.684;3.862;2023-07-28T14:04:53;1.75;;;1.48;;
10550;SDS011;5324;50.684;3.862;2023-07-28T14:07:19;2.67;;;1.88;;
10550;SDS011;5324;50.684;3.862;2023-07-28T14:09:45;3.30;;;1.67;;
10550;SDS011;5324;50.684;3.862;2023-07-28T14:12:11;1.98;;;1.83;;
10550;SDS011;5324;50.684;3.862;2023-07-28T14:14:37;2.78;;;1.63;;
10550;SDS011;5324;50.684;3.862;2023-07-28T14:17:03;2.90;;;1.92;;
10550;SDS011;5324;50.684;3.862;2023-07-28T14:19:30;1.70;;;1.55;;
10550;SDS011;5324;50.684;3.862;2023-07-28T14:21:56;2.03;;;1.80;;
10550;SDS011;5324;50.684;3.862;2023-07-28T14:24:22;3.40;;;2.25;;
10550;SDS011;5324;50.684;3.862;2023-07-28T14:26:48;2.22;;;1.70;;
10550;SDS011;5324;50.684;3.862;2023-07-28T14:29:14;2.08;;;1.90;;
10550;SDS011;5324;50.684;3.862;2023-07-28T14:31:40;3.15;;;1.95;;
10550;SDS011;5324;50.684;3.862;2023-07-28T14:34:06;1.73;;;1.63;;
10550;SDS011;5324;50.684;3.862;2023-07-28T14:36:32;2.10;;;1.77;;
10550;SDS011;5324;50.684;3.862;2023-07-28T14:38:59;2.15;;;1.95;;
10550;SDS011;5324;50.684;3.862;2023-07-28T14:41:26;3.03;;;1.60;;
10550;SDS011;5324;50.684;3.862;2023-07-28T14:43:52;1.73;;;1.63;;
10550;SDS011;5324;50.684;3.862;2023-07-28T14:46:18;3.55;;;1.83;;
10550;SDS011;5324;50.684;3.862;2023-07-28T14:48:47;1.77;;;1.65;;
10550;SDS011;5324;50.684;3.862;2023-07-28T14:51:14;2.45;;;1.67;;
10550;SDS011;5324;50.684;3.862;2023-07-28T14:53:40;2.00;;;1.80;;
10550;SDS011;5324;50.684;3.862;2023-07-28T14:56:07;2.65;;;1.80;;
10550;SDS011;5324;50.684;3.862;2023-07-28T14:58:33;2.22;;;1.75;;
10550;SDS011;5324;50.684;3.862;2023-07-28T15:01:00;2.75;;;1.67;;
10550;SDS011;5324;50.684;3.862;2023-07-28T15:03:28;1.50;;;1.40;;
10550;SDS011;5324;50.684;3.862;2023-07-28T15:05:55;1.83;;;1.70;;
10550;SDS011;5324;50.684;3.862;2023-07-28T15:08:21;2.83;;;1.50;;
10550;SDS011;5324;50.684;3.862;2023-07-28T15:10:47;1.70;;;1.60;;
10550;SDS011;5324;50.684;3.862;2023-07-28T15:13:14;2.25;;;1.70;;